Saturday, January 20, 2018, 9:17 AM GMT
Back to Local

CYGR, Iles De La Madeleineque.

Location: , , Canada Lat: 47.417
Local Time: 9:17 AM GMT ( 9:17 GMT) Lon: -61.783
Time Zone: GMT Elev: 32 ft

Show me the last for .
Show Decoded

2018-01-20 03:00 METAR CYGR 200300Z 29005KT 15SM -SN OVC025 M07/M11 A2984 RMK SC8 LAST STFD
                 OBS/NEXT 201000 UTC SLP106 =
2018-01-20 02:00 METAR CYGR 200200Z 29008KT 15SM -SN OVC023 M08/M11 A2984 RMK SC8 PRESRR SLP107 =
2018-01-20 01:00 METAR CYGR 200100Z 31009KT 15SM -SN OVC021 M08/M11 A2982 RMK SC8 SLP101 =
2018-01-20 00:00 METAR CYGR 200000Z 31006KT 15SM -SN OVC021 M08/M11 A2982 RMK SC8 SLP101 =
2018-01-19 23:03 METAR CYGR 192303Z 30009KT 15SM -SHSN BKN024 M08/M11 A2982 RMK SC7 CVCTV CLD
                 EMBD SLP102 =
2018-01-19 23:00 METAR CYGR 192300Z 31009KT 15SM BKN024 M08/M11 A2983 RMK SC7 SLP103 =
2018-01-19 22:00 METAR CYGR 192200Z 31008KT 15SM SCT025 M08/M12 A2982 RMK SC3 SLP100 =
2018-01-19 21:00 METAR CYGR 192100Z 34011KT 20SM SCT025 SCT270 M08/M13 A2982 RMK SC3CI1 CI TR
                 SLP099 =
2018-01-19 20:00 METAR CYGR 192000Z 33008KT 20SM BKN025 BKN270 M07/M12 A2981 RMK SC7CI1 CI TR
                 SLP098 =
2018-01-19 19:00 METAR CYGR 191900Z 32011KT 20SM BKN026 BKN270 M07/M12 A2979 RMK SC5CI1 SLP090 =
2018-01-19 18:00 METAR CYGR 191800Z 32011KT 20SM BKN024 BKN270 M07/M12 A2978 RMK SC6CI1 CI TR
                 SLP086 =
2018-01-19 16:00 METAR CYGR 191600Z 34011KT 20SM BKN026 M07/M12 A2979 RMK SC6 SLP091 =
2018-01-19 15:00 METAR CYGR 191500Z 34011KT 20SM BKN024 BKN270 M07/M11 A2979 RMK SC5CI1 CI TR
                 SLP092 =
2018-01-19 14:00 METAR CYGR 191400Z 35013KT 20SM BKN029 M07/M12 A2980 RMK SC6 SLP093 =
2018-01-19 13:00 METAR CYGR 191300Z 36013G18KT 20SM BKN024 M06/M10 A2979 RMK SC7 SLP090 =
2018-01-19 12:00 METAR CYGR 191200Z 35015KT 20SM -SHSN OVC023 M06/M10 A2977 RMK SC8 CVCTV CLDS
                 EMBD SLP085 =
2018-01-19 11:00 METAR CYGR 191100Z 35014KT 15SM -SHSN OVC024 M06/M10 A2977 RMK SC8 CVCTV CLDS
                 EMBD SLP082 =
2018-01-19 10:00 METAR CYGR 191000Z 34012KT 15SM -SHSN OVC023 M06/M10 A2976 RMK SC8 CVCTV CLDS
                 EMBD SLP079 =

Support USWX by starting your Amazon purchase here.